sensor_id;sensor_type;location;lat;lon;timestamp;temperature;humidity
3360;DHT22;1693;49.602;11.046;2023-08-06T00:01:55;15.40;99.90
3360;DHT22;1693;49.602;11.046;2023-08-06T05:05:30;13.70;99.90
3360;DHT22;1693;49.602;11.046;2023-08-06T05:07:57;13.70;99.90
3360;DHT22;1693;49.602;11.046;2023-08-06T05:15:20;13.90;99.90
3360;DHT22;1693;49.602;11.046;2023-08-06T05:17:49;13.90;99.90
3360;DHT22;1693;49.602;11.046;2023-08-06T05:20:16;13.90;99.90
3360;DHT22;1693;49.602;11.046;2023-08-06T05:22:44;14.00;99.90
3360;DHT22;1693;49.602;11.046;2023-08-06T05:25:13;14.00;99.90
3360;DHT22;1693;49.602;11.046;2023-08-06T05:27:40;14.10;99.90
3360;DHT22;1693;49.602;11.046;2023-08-06T05:30:08;14.20;99.90
3360;DHT22;1693;49.602;11.046;2023-08-06T05:32:35;14.20;99.90
3360;DHT22;1693;49.602;11.046;2023-08-06T05:35:04;14.30;99.90
3360;DHT22;1693;49.602;11.046;2023-08-06T05:37:31;14.30;99.90
3360;DHT22;1693;49.602;11.046;2023-08-06T05:39:59;14.40;99.90
3360;DHT22;1693;49.602;11.046;2023-08-06T05:42:27;14.50;99.90
3360;DHT22;1693;49.602;11.046;2023-08-06T05:44:54;14.50;99.90
3360;DHT22;1693;49.602;11.046;2023-08-06T05:47:21;14.60;99.90
3360;DHT22;1693;49.602;11.046;2023-08-06T05:49:48;14.60;99.90
3360;DHT22;1693;49.602;11.046;2023-08-06T05:52:16;14.70;99.90
3360;DHT22;1693;49.602;11.046;2023-08-06T05:54:43;14.70;99.90
3360;DHT22;1693;49.602;11.046;2023-08-06T05:57:10;14.80;99.90
3360;DHT22;1693;49.602;11.046;2023-08-06T06:06:59;15.30;99.90
3360;DHT22;1693;49.602;11.046;2023-08-06T06:11:54;15.20;99.90
3360;DHT22;1693;49.602;11.046;2023-08-06T06:14:21;15.40;99.90
3360;DHT22;1693;49.602;11.046;2023-08-06T06:16:48;15.50;99.90
3360;DHT22;1693;49.602;11.046;2023-08-06T06:19:15;15.50;99.90
3360;DHT22;1693;49.602;11.046;2023-08-06T06:21:42;15.30;99.90
3360;DHT22;1693;49.602;11.046;2023-08-06T06:24:10;15.70;99.90
3360;DHT22;1693;49.602;11.046;2023-08-06T06:26:38;15.90;99.90
3360;DHT22;1693;49.602;11.046;2023-08-06T06:29:05;16.00;99.90
3360;DHT22;1693;49.602;11.046;2023-08-06T06:31:32;16.00;99.90
3360;DHT22;1693;49.602;11.046;2023-08-06T06:33:59;15.80;99.90
3360;DHT22;1693;49.602;11.046;2023-08-06T06:36:26;15.80;99.90
3360;DHT22;1693;49.602;11.046;2023-08-06T06:43:49;16.30;99.90
3360;DHT22;1693;49.602;11.046;2023-08-06T06:46:16;16.40;99.90
3360;DHT22;1693;49.602;11.046;2023-08-06T06:48:43;16.40;99.90
3360;DHT22;1693;49.602;11.046;2023-08-06T06:51:10;16.40;99.90
3360;DHT22;1693;49.602;11.046;2023-08-06T06:53:37;16.40;99.90
3360;DHT22;1693;49.602;11.046;2023-08-06T06:56:04;16.10;99.90
3360;DHT22;1693;49.602;11.046;2023-08-06T06:58:31;16.20;99.90
3360;DHT22;1693;49.602;11.046;2023-08-06T07:01:00;16.20;99.90
3360;DHT22;1693;49.602;11.046;2023-08-06T07:03:27;16.20;99.90
3360;DHT22;1693;49.602;11.046;2023-08-06T07:05:57;16.30;99.90
3360;DHT22;1693;49.602;11.046;2023-08-06T07:08:25;16.30;99.90
3360;DHT22;1693;49.602;11.046;2023-08-06T07:10:59;16.20;99.90
3360;DHT22;1693;49.602;11.046;2023-08-06T07:13:27;16.20;99.90
3360;DHT22;1693;49.602;11.046;2023-08-06T07:15:54;16.20;99.90
3360;DHT22;1693;49.602;11.046;2023-08-06T07:18:23;16.20;99.90
3360;DHT22;1693;49.602;11.046;2023-08-06T07:20:50;16.20;99.90
3360;DHT22;1693;49.602;11.046;2023-08-06T07:23:19;16.30;99.90
3360;DHT22;1693;49.602;11.046;2023-08-06T07:25:47;16.40;99.90
3360;DHT22;1693;49.602;11.046;2023-08-06T07:28:14;16.50;99.90
3360;DHT22;1693;49.602;11.046;2023-08-06T07:30:43;16.80;99.90
3360;DHT22;1693;49.602;11.046;2023-08-06T07:33:10;16.80;99.90
3360;DHT22;1693;49.602;11.046;2023-08-06T07:35:39;16.80;99.90
3360;DHT22;1693;49.602;11.046;2023-08-06T07:38:06;17.00;99.90
3360;DHT22;1693;49.602;11.046;2023-08-06T07:40:35;17.20;99.90
3360;DHT22;1693;49.602;11.046;2023-08-06T07:43:01;17.20;99.90
3360;DHT22;1693;49.602;11.046;2023-08-06T07:45:33;17.60;99.90
3360;DHT22;1693;49.602;11.046;2023-08-06T07:48:00;17.70;99.90
3360;DHT22;1693;49.602;11.046;2023-08-06T07:50:27;18.00;99.90
3360;DHT22;1693;49.602;11.046;2023-08-06T07:52:55;18.30;99.90
3360;DHT22;1693;49.602;11.046;2023-08-06T07:55:22;18.40;99.90
3360;DHT22;1693;49.602;11.046;2023-08-06T07:57:49;18.70;99.90
3360;DHT22;1693;49.602;11.046;2023-08-06T08:00:16;18.70;99.90
3360;DHT22;1693;49.602;11.046;2023-08-06T08:02:44;18.30;99.90
3360;DHT22;1693;49.602;11.046;2023-08-06T08:05:12;17.90;99.90
3360;DHT22;1693;49.602;11.046;2023-08-06T08:07:40;18.20;99.90
3360;DHT22;1693;49.602;11.046;2023-08-06T08:15:04;18.70;99.90
3360;DHT22;1693;49.602;11.046;2023-08-06T08:17:31;18.80;99.90
3360;DHT22;1693;49.602;11.046;2023-08-06T08:20:00;18.80;99.90
3360;DHT22;1693;49.602;11.046;2023-08-06T08:22:27;18.70;99.90
3360;DHT22;1693;49.602;11.046;2023-08-06T08:24:54;18.50;99.90
3360;DHT22;1693;49.602;11.046;2023-08-06T08:27:22;17.80;99.90
3360;DHT22;1693;49.602;11.046;2023-08-06T08:29:49;17.20;99.90
3360;DHT22;1693;49.602;11.046;2023-08-06T08:32:16;16.80;99.90
3360;DHT22;1693;49.602;11.046;2023-08-06T08:37:10;16.20;99.90
3360;DHT22;1693;49.602;11.046;2023-08-06T08:39:38;16.20;99.90
3360;DHT22;1693;49.602;11.046;2023-08-06T08:42:05;16.20;99.90
3360;DHT22;1693;49.602;11.046;2023-08-06T08:47:05;16.30;99.90
3360;DHT22;1693;49.602;11.046;2023-08-06T08:49:32;16.20;99.90
3360;DHT22;1693;49.602;11.046;2023-08-06T08:52:02;16.20;99.90
3360;DHT22;1693;49.602;11.046;2023-08-06T08:54:32;16.30;99.90
3360;DHT22;1693;49.602;11.046;2023-08-06T08:56:59;16.40;99.90
3360;DHT22;1693;49.602;11.046;2023-08-06T08:59:27;16.40;99.90
3360;DHT22;1693;49.602;11.046;2023-08-06T09:01:56;16.50;99.90
3360;DHT22;1693;49.602;11.046;2023-08-06T09:04:24;16.60;99.90
3360;DHT22;1693;49.602;11.046;2023-08-06T09:06:54;16.60;99.90
3360;DHT22;1693;49.602;11.046;2023-08-06T09:09:26;16.80;99.90
3360;DHT22;1693;49.602;11.046;2023-08-06T09:11:55;16.60;99.90
3360;DHT22;1693;49.602;11.046;2023-08-06T09:14:26;16.40;99.90
3360;DHT22;1693;49.602;11.046;2023-08-06T09:16:55;16.80;99.90
3360;DHT22;1693;49.602;11.046;2023-08-06T09:19:23;17.20;99.90
3360;DHT22;1693;49.602;11.046;2023-08-06T09:21:51;17.40;99.90
3360;DHT22;1693;49.602;11.046;2023-08-06T09:24:19;17.70;99.90
3360;DHT22;1693;49.602;11.046;2023-08-06T09:26:45;17.90;99.90
3360;DHT22;1693;49.602;11.046;2023-08-06T09:29:12;18.00;99.90
3360;DHT22;1693;49.602;11.046;2023-08-06T09:31:41;18.00;99.90
3360;DHT22;1693;49.602;11.046;2023-08-06T09:34:15;17.90;99.90
3360;DHT22;1693;49.602;11.046;2023-08-06T09:36:42;17.60;99.90
3360;DHT22;1693;49.602;11.046;2023-08-06T09:39:13;17.30;99.90
3360;DHT22;1693;49.602;11.046;2023-08-06T09:41:41;17.20;99.90
3360;DHT22;1693;49.602;11.046;2023-08-06T09:44:17;17.30;99.90
3360;DHT22;1693;49.602;11.046;2023-08-06T09:46:47;17.40;99.90
3360;DHT22;1693;49.602;11.046;2023-08-06T09:49:17;17.50;99.90
3360;DHT22;1693;49.602;11.046;2023-08-06T09:51:45;17.50;99.90
3360;DHT22;1693;49.602;11.046;2023-08-06T09:54:12;17.70;99.90
3360;DHT22;1693;49.602;11.046;2023-08-06T09:56:40;17.80;99.90
3360;DHT22;1693;49.602;11.046;2023-08-06T09:59:08;17.90;99.90
3360;DHT22;1693;49.602;11.046;2023-08-06T10:01:37;17.90;99.90
3360;DHT22;1693;49.602;11.046;2023-08-06T10:04:05;17.80;99.90
3360;DHT22;1693;49.602;11.046;2023-08-06T10:06:35;17.70;99.90
3360;DHT22;1693;49.602;11.046;2023-08-06T10:09:02;17.60;99.90
3360;DHT22;1693;49.602;11.046;2023-08-06T10:11:29;17.90;99.90
3360;DHT22;1693;49.602;11.046;2023-08-06T10:14:00;18.30;99.90
3360;DHT22;1693;49.602;11.046;2023-08-06T10:16:29;18.00;99.90
3360;DHT22;1693;49.602;11.046;2023-08-06T10:18:57;17.90;99.90
3360;DHT22;1693;49.602;11.046;2023-08-06T10:21:25;18.00;99.90
3360;DHT22;1693;49.602;11.046;2023-08-06T10:23:55;18.10;99.90
3360;DHT22;1693;49.602;11.046;2023-08-06T10:26:25;18.00;99.90
3360;DHT22;1693;49.602;11.046;2023-08-06T10:36:08;18.30;99.90
3360;DHT22;1693;49.602;11.046;2023-08-06T10:38:44;18.30;99.90
3360;DHT22;1693;49.602;11.046;2023-08-06T10:41:22;18.80;99.90
3360;DHT22;1693;49.602;11.046;2023-08-06T10:43:50;19.10;99.90
3360;DHT22;1693;49.602;11.046;2023-08-06T10:46:26;19.40;99.90
3360;DHT22;1693;49.602;11.046;2023-08-06T10:48:53;19.50;99.90
3360;DHT22;1693;49.602;11.046;2023-08-06T10:51:20;19.30;99.90
3360;DHT22;1693;49.602;11.046;2023-08-06T10:53:49;19.60;99.90
3360;DHT22;1693;49.602;11.046;2023-08-06T10:56:18;19.80;99.90
3360;DHT22;1693;49.602;11.046;2023-08-06T10:58:47;19.70;99.90
3360;DHT22;1693;49.602;11.046;2023-08-06T11:01:14;20.10;99.90
3360;DHT22;1693;49.602;11.046;2023-08-06T11:03:42;20.30;99.90
3360;DHT22;1693;49.602;11.046;2023-08-06T11:06:09;20.20;99.90
3360;DHT22;1693;49.602;11.046;2023-08-06T11:08:38;20.00;99.90
3360;DHT22;1693;49.602;11.046;2023-08-06T11:11:08;19.80;99.90
3360;DHT22;1693;49.602;11.046;2023-08-06T11:13:38;20.50;99.90
3360;DHT22;1693;49.602;11.046;2023-08-06T11:16:05;20.80;99.90
3360;DHT22;1693;49.602;11.046;2023-08-06T11:18:32;21.20;99.90
3360;DHT22;1693;49.602;11.046;2023-08-06T11:20:59;20.60;99.90
3360;DHT22;1693;49.602;11.046;2023-08-06T11:23:27;20.20;99.90
3360;DHT22;1693;49.602;11.046;2023-08-06T11:25:54;19.90;99.90
3360;DHT22;1693;49.602;11.046;2023-08-06T11:28:21;19.60;99.90
3360;DHT22;1693;49.602;11.046;2023-08-06T11:30:50;19.90;99.90
3360;DHT22;1693;49.602;11.046;2023-08-06T11:33:20;20.00;99.90
3360;DHT22;1693;49.602;11.046;2023-08-06T11:35:48;20.90;99.90
3360;DHT22;1693;49.602;11.046;2023-08-06T11:38:15;20.70;99.90
3360;DHT22;1693;49.602;11.046;2023-08-06T11:40:44;21.20;99.90
3360;DHT22;1693;49.602;11.046;2023-08-06T11:43:11;21.20;99.90
3360;DHT22;1693;49.602;11.046;2023-08-06T11:45:38;21.00;99.90
3360;DHT22;1693;49.602;11.046;2023-08-06T11:48:07;20.70;99.90
3360;DHT22;1693;49.602;11.046;2023-08-06T11:50:37;20.10;99.90
3360;DHT22;1693;49.602;11.046;2023-08-06T11:53:04;19.20;99.90
3360;DHT22;1693;49.602;11.046;2023-08-06T11:55:32;19.20;99.90
3360;DHT22;1693;49.602;11.046;2023-08-06T11:58:03;20.20;99.90
3360;DHT22;1693;49.602;11.046;2023-08-06T12:00:30;21.20;99.90
3360;DHT22;1693;49.602;11.046;2023-08-06T12:02:58;22.10;99.90
3360;DHT22;1693;49.602;11.046;2023-08-06T12:05:33;23.00;99.90
3360;DHT22;1693;49.602;11.046;2023-08-06T12:08:02;23.50;99.90
3360;DHT22;1693;49.602;11.046;2023-08-06T12:10:31;23.80;99.90
3360;DHT22;1693;49.602;11.046;2023-08-06T12:13:01;24.30;99.90
3360;DHT22;1693;49.602;11.046;2023-08-06T12:15:28;24.60;99.90
3360;DHT22;1693;49.602;11.046;2023-08-06T12:17:55;24.80;99.90
3360;DHT22;1693;49.602;11.046;2023-08-06T12:20:22;25.00;99.90
3360;DHT22;1693;49.602;11.046;2023-08-06T12:22:51;23.40;99.90
3360;DHT22;1693;49.602;11.046;2023-08-06T12:25:18;22.20;99.90
3360;DHT22;1693;49.602;11.046;2023-08-06T12:27:46;21.60;99.90
3360;DHT22;1693;49.602;11.046;2023-08-06T12:30:13;20.90;99.90
3360;DHT22;1693;49.602;11.046;2023-08-06T12:32:40;20.00;99.90
3360;DHT22;1693;49.602;11.046;2023-08-06T12:35:08;19.20;99.90
3360;DHT22;1693;49.602;11.046;2023-08-06T12:37:35;18.40;99.90
3360;DHT22;1693;49.602;11.046;2023-08-06T12:40:06;18.00;99.90
3360;DHT22;1693;49.602;11.046;2023-08-06T12:42:33;18.00;99.90
3360;DHT22;1693;49.602;11.046;2023-08-06T12:45:00;18.30;99.90
3360;DHT22;1693;49.602;11.046;2023-08-06T12:49:55;19.70;99.90
3360;DHT22;1693;49.602;11.046;2023-08-06T12:52:22;21.10;99.90
3360;DHT22;1693;49.602;11.046;2023-08-06T12:54:49;22.30;99.90
3360;DHT22;1693;49.602;11.046;2023-08-06T12:59:44;25.00;99.90
3360;DHT22;1693;49.602;11.046;2023-08-06T13:02:12;24.70;99.90
3360;DHT22;1693;49.602;11.046;2023-08-06T13:04:39;24.30;99.90
3360;DHT22;1693;49.602;11.046;2023-08-06T13:07:05;25.00;99.90
3360;DHT22;1693;49.602;11.046;2023-08-06T13:09:33;25.60;99.90
3360;DHT22;1693;49.602;11.046;2023-08-06T13:12:00;24.90;99.90
3360;DHT22;1693;49.602;11.046;2023-08-06T13:14:40;23.80;99.90
3360;DHT22;1693;49.602;11.046;2023-08-06T13:17:24;22.20;99.90
3360;DHT22;1693;49.602;11.046;2023-08-06T13:19:52;21.00;99.90
3360;DHT22;1693;49.602;11.046;2023-08-06T13:22:19;20.80;99.90
3360;DHT22;1693;49.602;11.046;2023-08-06T13:24:46;20.60;99.90
3360;DHT22;1693;49.602;11.046;2023-08-06T13:27:13;21.00;99.90
3360;DHT22;1693;49.602;11.046;2023-08-06T13:29:41;20.40;99.90
3360;DHT22;1693;49.602;11.046;2023-08-06T13:32:08;19.50;99.90
3360;DHT22;1693;49.602;11.046;2023-08-06T13:34:35;19.00;99.90
3360;DHT22;1693;49.602;11.046;2023-08-06T13:37:02;18.80;99.90
3360;DHT22;1693;49.602;11.046;2023-08-06T13:39:29;19.10;99.90
3360;DHT22;1693;49.602;11.046;2023-08-06T13:41:56;19.10;99.90
3360;DHT22;1693;49.602;11.046;2023-08-06T13:44:23;19.40;99.90
3360;DHT22;1693;49.602;11.046;2023-08-06T13:46:51;19.10;99.90
3360;DHT22;1693;49.602;11.046;2023-08-06T13:49:18;19.00;99.90
3360;DHT22;1693;49.602;11.046;2023-08-06T13:51:45;18.70;99.90
3360;DHT22;1693;49.602;11.046;2023-08-06T13:54:12;19.00;99.90
3360;DHT22;1693;49.602;11.046;2023-08-06T13:56:39;18.70;99.90
3360;DHT22;1693;49.602;11.046;2023-08-06T13:59:06;18.50;99.90
3360;DHT22;1693;49.602;11.046;2023-08-06T14:01:33;18.40;99.90
3360;DHT22;1693;49.602;11.046;2023-08-06T14:04:02;17.80;99.90
3360;DHT22;1693;49.602;11.046;2023-08-06T14:06:29;17.80;99.90
3360;DHT22;1693;49.602;11.046;2023-08-06T14:08:57;17.40;99.90
3360;DHT22;1693;49.602;11.046;2023-08-06T14:11:24;17.10;99.90
3360;DHT22;1693;49.602;11.046;2023-08-06T14:13:51;16.90;99.90
3360;DHT22;1693;49.602;11.046;2023-08-06T14:16:18;16.90;99.90
3360;DHT22;1693;49.602;11.046;2023-08-06T14:18:45;16.70;99.90
3360;DHT22;1693;49.602;11.046;2023-08-06T14:21:13;16.40;99.90
3360;DHT22;1693;49.602;11.046;2023-08-06T14:23:40;16.20;99.90
3360;DHT22;1693;49.602;11.046;2023-08-06T14:26:08;16.10;99.90
3360;DHT22;1693;49.602;11.046;2023-08-06T14:28:36;16.00;99.90
3360;DHT22;1693;49.602;11.046;2023-08-06T14:31:03;15.90;99.90
3360;DHT22;1693;49.602;11.046;2023-08-06T14:33:30;15.80;99.90
3360;DHT22;1693;49.602;11.046;2023-08-06T14:35:57;15.70;99.90
3360;DHT22;1693;49.602;11.046;2023-08-06T14:38:25;15.60;99.90
3360;DHT22;1693;49.602;11.046;2023-08-06T14:40:52;15.30;99.90
3360;DHT22;1693;49.602;11.046;2023-08-06T14:43:19;15.20;99.90
3360;DHT22;1693;49.602;11.046;2023-08-06T14:45:46;15.00;99.90
3360;DHT22;1693;49.602;11.046;2023-08-06T14:48:13;14.80;99.90
3360;DHT22;1693;49.602;11.046;2023-08-06T14:50:40;14.70;99.90
3360;DHT22;1693;49.602;11.046;2023-08-06T14:53:07;14.70;99.90
3360;DHT22;1693;49.602;11.046;2023-08-06T14:55:37;14.70;99.90
3360;DHT22;1693;49.602;11.046;2023-08-06T14:58:04;14.70;99.90
3360;DHT22;1693;49.602;11.046;2023-08-06T15:00:31;14.60;99.90
3360;DHT22;1693;49.602;11.046;2023-08-06T15:02:58;14.60;99.90
3360;DHT22;1693;49.602;11.046;2023-08-06T15:05:25;14.60;99.90
3360;DHT22;1693;49.602;11.046;2023-08-06T15:07:52;14.60;99.90
3360;DHT22;1693;49.602;11.046;2023-08-06T15:10:19;14.70;99.90
3360;DHT22;1693;49.602;11.046;2023-08-06T15:12:48;14.70;99.90
3360;DHT22;1693;49.602;11.046;2023-08-06T15:15:15;14.70;99.90
3360;DHT22;1693;49.602;11.046;2023-08-06T15:17:42;14.60;99.90
3360;DHT22;1693;49.602;11.046;2023-08-06T15:20:10;14.60;99.90
3360;DHT22;1693;49.602;11.046;2023-08-06T15:22:37;14.60;99.90
3360;DHT22;1693;49.602;11.046;2023-08-06T15:25:05;14.50;99.90
3360;DHT22;1693;49.602;11.046;2023-08-06T15:27:32;14.50;99.90
3360;DHT22;1693;49.602;11.046;2023-08-06T15:30:02;14.50;99.90
3360;DHT22;1693;49.602;11.046;2023-08-06T15:32:29;14.50;99.90
3360;DHT22;1693;49.602;11.046;2023-08-06T15:34:56;14.50;99.90
3360;DHT22;1693;49.602;11.046;2023-08-06T15:37:23;14.50;99.90
3360;DHT22;1693;49.602;11.046;2023-08-06T15:39:51;14.50;99.90
3360;DHT22;1693;49.602;11.046;2023-08-06T15:42:18;14.60;99.90
3360;DHT22;1693;49.602;11.046;2023-08-06T15:44:45;14.70;99.90
3360;DHT22;1693;49.602;11.046;2023-08-06T15:47:14;14.80;99.90
3360;DHT22;1693;49.602;11.046;2023-08-06T15:49:41;14.90;99.90
3360;DHT22;1693;49.602;11.046;2023-08-06T15:52:08;15.10;99.90
3360;DHT22;1693;49.602;11.046;2023-08-06T15:54:35;15.20;99.90
3360;DHT22;1693;49.602;11.046;2023-08-06T15:57:02;15.30;99.90
3360;DHT22;1693;49.602;11.046;2023-08-06T15:59:30;15.50;99.90
3360;DHT22;1693;49.602;11.046;2023-08-06T16:01:58;15.50;99.90
3360;DHT22;1693;49.602;11.046;2023-08-06T16:04:27;15.70;99.90
3360;DHT22;1693;49.602;11.046;2023-08-06T16:06:54;15.80;99.90
3360;DHT22;1693;49.602;11.046;2023-08-06T16:09:21;16.00;99.90
3360;DHT22;1693;49.602;11.046;2023-08-06T16:11:49;16.40;99.90
3360;DHT22;1693;49.602;11.046;2023-08-06T16:14:17;16.60;99.90
3360;DHT22;1693;49.602;11.046;2023-08-06T16:16:45;16.40;99.90
3360;DHT22;1693;49.602;11.046;2023-08-06T16:19:13;16.30;99.90
3360;DHT22;1693;49.602;11.046;2023-08-06T16:21:41;16.20;99.90
3360;DHT22;1693;49.602;11.046;2023-08-06T16:24:09;16.00;99.90
3360;DHT22;1693;49.602;11.046;2023-08-06T16:26:36;16.00;99.90
3360;DHT22;1693;49.602;11.046;2023-08-06T16:29:03;16.00;99.90
3360;DHT22;1693;49.602;11.046;2023-08-06T16:31:29;15.90;99.90
3360;DHT22;1693;49.602;11.046;2023-08-06T16:33:56;15.80;99.90
3360;DHT22;1693;49.602;11.046;2023-08-06T16:36:24;15.80;99.90
3360;DHT22;1693;49.602;11.046;2023-08-06T16:38:52;15.70;99.90
3360;DHT22;1693;49.602;11.046;2023-08-06T16:41:19;15.40;99.90
3360;DHT22;1693;49.602;11.046;2023-08-06T16:43:46;15.30;99.90
3360;DHT22;1693;49.602;11.046;2023-08-06T16:46:14;15.20;99.90
3360;DHT22;1693;49.602;11.046;2023-08-06T16:48:43;15.30;99.90
3360;DHT22;1693;49.602;11.046;2023-08-06T16:51:10;15.40;99.90
3360;DHT22;1693;49.602;11.046;2023-08-06T16:53:39;15.40;99.90
3360;DHT22;1693;49.602;11.046;2023-08-06T16:56:07;15.50;99.90
3360;DHT22;1693;49.602;11.046;2023-08-06T16:58:34;15.60;99.90
3360;DHT22;1693;49.602;11.046;2023-08-06T17:01:01;15.60;99.90
3360;DHT22;1693;49.602;11.046;2023-08-06T17:03:31;15.50;99.90
3360;DHT22;1693;49.602;11.046;2023-08-06T17:05:58;15.60;99.90
3360;DHT22;1693;49.602;11.046;2023-08-06T17:08:26;15.60;99.90
3360;DHT22;1693;49.602;11.046;2023-08-06T17:10:55;15.60;99.90
3360;DHT22;1693;49.602;11.046;2023-08-06T17:13:23;15.60;99.90
3360;DHT22;1693;49.602;11.046;2023-08-06T17:15:50;15.50;99.90
3360;DHT22;1693;49.602;11.046;2023-08-06T17:18:17;15.40;99.90
3360;DHT22;1693;49.602;11.046;2023-08-06T17:20:45;15.30;99.90
3360;DHT22;1693;49.602;11.046;2023-08-06T17:23:12;15.30;99.90
3360;DHT22;1693;49.602;11.046;2023-08-06T17:25:40;15.20;99.90
3360;DHT22;1693;49.602;11.046;2023-08-06T17:28:07;15.20;99.90
3360;DHT22;1693;49.602;11.046;2023-08-06T17:30:36;15.10;99.90
3360;DHT22;1693;49.602;11.046;2023-08-06T17:33:05;14.90;99.90
3360;DHT22;1693;49.602;11.046;2023-08-06T17:35:32;14.90;99.90
3360;DHT22;1693;49.602;11.046;2023-08-06T17:37:59;14.80;99.90
3360;DHT22;1693;49.602;11.046;2023-08-06T17:40:27;14.90;99.90
3360;DHT22;1693;49.602;11.046;2023-08-06T17:42:55;15.00;99.90
3360;DHT22;1693;49.602;11.046;2023-08-06T17:45:22;15.10;99.90
3360;DHT22;1693;49.602;11.046;2023-08-06T17:47:51;15.20;99.90
3360;DHT22;1693;49.602;11.046;2023-08-06T17:50:18;15.30;99.90
3360;DHT22;1693;49.602;11.046;2023-08-06T17:52:45;15.30;99.90
3360;DHT22;1693;49.602;11.046;2023-08-06T17:55:13;15.30;99.90
3360;DHT22;1693;49.602;11.046;2023-08-06T17:57:40;15.30;99.90
3360;DHT22;1693;49.602;11.046;2023-08-06T18:00:08;15.30;99.90
3360;DHT22;1693;49.602;11.046;2023-08-06T18:02:36;15.30;99.90
3360;DHT22;1693;49.602;11.046;2023-08-06T18:05:04;15.10;99.90
3360;DHT22;1693;49.602;11.046;2023-08-06T18:07:31;15.00;99.90
3360;DHT22;1693;49.602;11.046;2023-08-06T18:09:58;14.90;99.90
3360;DHT22;1693;49.602;11.046;2023-08-06T18:12:25;14.90;99.90
3360;DHT22;1693;49.602;11.046;2023-08-06T18:14:52;15.00;99.90
3360;DHT22;1693;49.602;11.046;2023-08-06T18:17:20;15.00;99.90
3360;DHT22;1693;49.602;11.046;2023-08-06T18:19:47;15.00;99.90
3360;DHT22;1693;49.602;11.046;2023-08-06T18:22:15;14.90;99.90
3360;DHT22;1693;49.602;11.046;2023-08-06T18:24:42;14.90;99.90
3360;DHT22;1693;49.602;11.046;2023-08-06T18:27:09;14.80;99.90
3360;DHT22;1693;49.602;11.046;2023-08-06T18:29:37;14.70;99.90
3360;DHT22;1693;49.602;11.046;2023-08-06T18:32:04;14.60;99.90
3360;DHT22;1693;49.602;11.046;2023-08-06T18:34:31;14.50;99.90
3360;DHT22;1693;49.602;11.046;2023-08-06T18:36:59;14.50;99.90
3360;DHT22;1693;49.602;11.046;2023-08-06T18:39:28;14.40;99.90
3360;DHT22;1693;49.602;11.046;2023-08-06T18:41:55;14.30;99.90
3360;DHT22;1693;49.602;11.046;2023-08-06T18:44:22;14.10;99.90
3360;DHT22;1693;49.602;11.046;2023-08-06T18:46:49;14.00;99.90
3360;DHT22;1693;49.602;11.046;2023-08-06T18:49:16;14.00;99.90
3360;DHT22;1693;49.602;11.046;2023-08-06T18:51:42;13.90;99.90
3360;DHT22;1693;49.602;11.046;2023-08-06T18:54:09;13.80;99.90
3360;DHT22;1693;49.602;11.046;2023-08-06T18:56:38;13.80;99.90
